Time;durP1;ratioP1;P1;durP2;ratioP2;P2;SDS_P1;SDS_P2;PMS_P1;PMS_P2;Temp;Humidity;BMP_temperature;BMP_pressure;BME280_temperature;BME280_humidity;BME280_pressure;Samples;Min_cycle;Max_cycle;Signal;HPM_P1;HPM_P2
2023/01/07 00:01:38;;;;;;;;;;;9.10;99.90;;;8.58;100.00;97755.78;5054123;28;20384;-40
2023/01/07 00:04:05;;;;;;;;;;;9.10;99.90;;;8.56;100.00;97744.41;5039953;28;19966;-40
2023/01/07 00:06:33;;;;;;;;;;;9.10;99.90;;;8.53;100.00;97744.50;5048564;28;20675;-40
2023/01/07 00:08:59;;;;;;;;;;;9.10;99.90;;;8.56;100.00;97750.53;5056579;28;19959;-39
2023/01/07 00:11:30;;;;;;;;;;;9.10;99.90;;;8.56;100.00;97747.91;5049446;28;20019;-39
2023/01/07 00:13:57;;;;;;;;;;;9.10;99.90;;;8.54;100.00;97746.19;5042454;28;19916;-39
2023/01/07 00:16:27;;;;;;;;;;;9.10;99.90;;;8.54;100.00;97746.19;5050383;28;19963;-39
2023/01/07 00:18:54;;;;;;;;;;;9.10;99.90;;;8.54;100.00;97747.09;5050966;28;19983;-39
2023/01/07 00:21:21;;;;;;;;;;;9.10;99.90;;;8.54;100.00;97747.09;5045352;28;19952;-39
2023/01/07 00:23:47;;;;;;;;;;;9.10;99.90;;;8.53;100.00;97745.34;5046634;28;20415;-40
2023/01/07 00:26:18;;;;;;;;;;;9.10;99.90;;;8.52;100.00;97745.38;5049071;28;20411;-40
2023/01/07 00:28:45;;;;;;;;;;;9.10;99.90;;;8.49;100.00;97734.94;5048691;28;19917;-39
2023/01/07 00:31:14;;;;;;;;;;;9.10;99.90;;;8.51;100.00;97736.63;5055351;28;19928;-39
2023/01/07 00:36:35;;;;;;;;;;;9.10;99.90;;;8.50;100.00;97728.78;5058431;28;19917;-39
2023/01/07 00:39:06;;;;;;;;;;;9.10;99.90;;;8.49;100.00;97716.53;5053097;28;19928;-39
2023/01/07 00:41:32;;;;;;;;;;;9.00;99.90;;;8.47;100.00;97726.22;5049123;28;20292;-39
2023/01/07 00:43:57;;;;;;;;;;;9.00;99.90;;;8.45;100.00;97718.34;5047546;28;19917;-39
2023/01/07 00:46:23;;;;;;;;;;;9.00;99.90;;;8.41;100.00;97712.28;5052060;28;20379;-39
2023/01/07 00:48:49;;;;;;;;;;;9.00;99.90;;;8.45;100.00;97715.72;5058905;28;19982;-39
2023/01/07 00:51:15;;;;;;;;;;;9.00;99.90;;;8.42;100.00;97710.56;5057118;28;20380;-39
2023/01/07 00:53:42;;;;;;;;;;;9.00;99.90;;;8.41;100.00;97714.06;5058710;28;19958;-39
2023/01/07 00:56:08;;;;;;;;;;;9.00;99.90;;;8.41;100.00;97714.06;5050400;28;19921;-39
2023/01/07 00:58:34;;;;;;;;;;;8.90;99.90;;;8.39;100.00;97707.97;5041436;28;19923;-39
2023/01/07 01:01:00;;;;;;;;;;;8.90;99.90;;;8.38;100.00;97703.59;5048799;28;19925;-39
2023/01/07 01:03:27;;;;;;;;;;;9.00;99.90;;;8.38;100.00;97699.22;5037061;28;19931;-40
2023/01/07 01:05:53;;;;;;;;;;;8.90;99.90;;;8.37;100.00;97700.13;5041483;28;19923;-39
2023/01/07 01:08:20;;;;;;;;;;;8.90;99.90;;;8.38;100.00;97708.84;5052817;28;19917;-39
2023/01/07 01:10:46;;;;;;;;;;;8.90;99.90;;;8.35;100.00;97698.44;5043984;28;19931;-39
2023/01/07 01:13:13;;;;;;;;;;;8.90;99.90;;;8.38;100.00;97704.50;5053900;28;20320;-40
2023/01/07 01:15:44;;;;;;;;;;;8.90;99.90;;;8.38;100.00;97701.84;5047965;28;19917;-40
2023/01/07 01:18:09;;;;;;;;;;;8.90;99.90;;;8.37;100.00;97694.88;5048401;28;20375;-40
2023/01/07 01:20:35;;;;;;;;;;;8.90;99.90;;;8.37;100.00;97696.63;5049704;28;19927;-40
2023/01/07 01:23:01;;;;;;;;;;;8.90;99.90;;;8.35;100.00;97696.66;5056368;28;19993;-40
2023/01/07 01:25:26;;;;;;;;;;;8.90;99.90;;;8.25;100.00;97682.00;5055180;28;20403;-40
2023/01/07 01:27:52;;;;;;;;;;;8.90;99.90;;;8.32;100.00;97696.72;5054781;28;19955;-40
2023/01/07 01:30:17;;;;;;;;;;;8.90;99.90;;;8.31;100.00;97697.66;5047998;28;19964;-39
2023/01/07 01:32:43;;;;;;;;;;;8.90;99.90;;;8.31;100.00;97692.41;5050804;28;20378;-40
2023/01/07 01:35:09;;;;;;;;;;;8.90;99.90;;;8.32;100.00;97690.63;5044047;28;19956;-40
2023/01/07 01:37:34;;;;;;;;;;;8.90;99.90;;;8.16;100.00;97664.69;5051273;28;19916;-40
2023/01/07 01:40:02;;;;;;;;;;;8.90;99.90;;;8.30;100.00;97685.41;5051681;28;20201;-40
2023/01/07 01:42:28;;;;;;;;;;;8.90;99.90;;;8.31;100.00;97697.66;5059397;28;19916;-40
2023/01/07 01:44:56;;;;;;;;;;;8.90;99.90;;;8.31;100.00;97689.75;5045179;28;20400;-40
2023/01/07 01:47:40;;;;;;;;;;;8.90;99.90;;;8.30;100.00;97695.06;5048058;28;19931;-40
2023/01/07 01:50:26;;;;;;;;;;;8.90;99.90;;;8.32;100.00;97688.00;5055709;28;20455;-40
2023/01/07 01:52:55;;;;;;;;;;;8.90;99.90;;;8.31;100.00;97686.25;5027555;28;19928;-40
2023/01/07 01:55:26;;;;;;;;;;;8.90;99.90;;;8.32;100.00;97685.38;5038961;28;20279;-42
2023/01/07 01:57:53;;;;;;;;;;;8.90;99.90;;;8.32;100.00;97686.22;5031169;28;19930;-40
2023/01/07 02:00:19;;;;;;;;;;;8.90;99.90;;;8.32;100.00;97686.22;5033346;28;20402;-40
2023/01/07 02:02:54;;;;;;;;;;;8.90;99.90;;;8.31;100.00;97675.75;5042426;28;19924;-40
2023/01/07 02:05:20;;;;;;;;;;;8.90;99.90;;;8.24;100.00;97664.53;5037657;28;19981;-40
2023/01/07 02:07:45;;;;;;;;;;;8.90;99.90;;;8.20;100.00;97666.38;5038908;28;19920;-40
2023/01/07 02:10:19;;;;;;;;;;;8.90;99.90;;;8.28;100.00;97675.84;5048935;28;19928;-40
2023/01/07 02:13:10;;;;;;;;;;;8.90;99.90;;;8.29;100.00;97677.53;5057663;28;19923;-40
2023/01/07 02:15:43;;;;;;;;;;;8.80;99.90;;;8.29;100.00;97670.53;5037930;28;20570;-40
2023/01/07 02:18:39;;;;;;;;;;;8.90;99.90;;;8.08;100.00;97634.25;5037498;28;20015;-41
2023/01/07 02:21:45;;;;;;;;;;;8.90;99.90;;;8.23;100.00;97662.78;5036321;28;19960;-40
2023/01/07 02:24:23;;;;;;;;;;;8.90;99.90;;;8.22;100.00;97658.44;5029841;28;20379;-40
2023/01/07 02:27:22;;;;;;;;;;;8.80;99.90;;;8.20;100.00;97658.47;5061657;28;20009;-40
2023/01/07 02:30:25;;;;;;;;;;;8.80;99.90;;;8.20;100.00;97661.09;5036700;23;19932;-54
2023/01/07 02:32:56;;;;;;;;;;;8.80;99.90;;;8.21;100.00;97651.44;5016266;28;19924;-54
2023/01/07 02:35:37;;;;;;;;;;;8.80;99.90;;;8.20;100.00;97645.34;5015468;28;20231;-53
2023/01/07 02:38:28;;;;;;;;;;;8.80;99.90;;;8.20;100.00;97647.09;4995105;28;20015;-52
2023/01/07 02:41:07;;;;;;;;;;;8.80;99.90;;;8.16;100.00;97640.19;5013211;28;19931;-53
2023/01/07 02:43:57;;;;;;;;;;;8.80;99.90;;;8.19;100.00;97640.13;5002861;28;19981;-53
2023/01/07 02:46:34;;;;;;;;;;;8.80;99.90;;;8.20;100.00;97633.94;5002837;28;19924;-54
2023/01/07 02:49:03;;;;;;;;;;;8.70;99.90;;;8.19;100.00;97629.63;5039356;28;19921;-54
2023/01/07 02:51:38;;;;;;;;;;;8.80;99.90;;;8.19;100.00;97627.84;5013841;28;19920;-54
2023/01/07 02:54:08;;;;;;;;;;;8.80;99.90;;;8.19;100.00;97624.34;5021112;28;19925;-54
2023/01/07 02:56:52;;;;;;;;;;;8.80;99.90;;;8.09;100.00;97610.56;5019856;28;19925;-54
2023/01/07 02:59:21;;;;;;;;;;;8.80;99.90;;;8.05;100.00;97598.41;5032384;28;20006;-53
2023/01/07 03:02:13;;;;;;;;;;;8.70;99.90;;;8.17;100.00;97618.28;5028067;28;19925;-53
2023/01/07 03:04:57;;;;;;;;;;;8.70;99.90;;;8.17;100.00;97615.66;5017838;28;19923;-52
2023/01/07 03:08:03;;;;;;;;;;;8.70;99.90;;;8.15;100.00;97607.81;5025775;28;19968;-54
2023/01/07 03:10:42;;;;;;;;;;;8.70;99.90;;;8.14;100.00;97600.81;5013880;28;20503;-53
2023/01/07 03:13:16;;;;;;;;;;;8.70;99.90;;;8.16;100.00;97611.28;5016319;28;19999;-53
2023/01/07 03:15:44;;;;;;;;;;;8.70;99.90;;;8.02;100.00;97585.34;5017796;28;20582;-53
2023/01/07 03:18:14;;;;;;;;;;;8.70;99.90;;;8.14;100.00;97599.97;5035925;28;20438;-53
2023/01/07 03:20:42;;;;;;;;;;;8.70;99.90;;;8.12;100.00;97600.00;5011619;28;19920;-53
2023/01/07 03:23:10;;;;;;;;;;;8.70;99.90;;;8.10;100.00;97593.91;5018573;28;19995;-52
2023/01/07 03:25:40;;;;;;;;;;;8.70;99.90;;;8.10;100.00;97599.16;5029869;28;19918;-53
2023/01/07 03:28:06;;;;;;;;;;;8.70;99.90;;;8.12;100.00;97584.22;5020112;28;19971;-51
2023/01/07 03:30:32;;;;;;;;;;;8.70;99.90;;;8.10;100.00;97582.56;5024597;28;19929;-50
2023/01/07 03:33:07;;;;;;;;;;;8.70;99.90;;;8.10;100.00;97583.41;5032690;28;19917;-52
2023/01/07 03:35:33;;;;;;;;;;;8.70;99.90;;;8.13;100.00;97578.09;5019486;28;19920;-53
2023/01/07 03:37:59;;;;;;;;;;;8.70;99.90;;;8.14;100.00;97571.06;5031031;28;20304;-54
2023/01/07 03:40:25;;;;;;;;;;;8.70;99.90;;;8.13;100.00;97578.09;4996567;28;19926;-53
2023/01/07 03:42:52;;;;;;;;;;;8.70;99.90;;;8.13;100.00;97571.94;4995129;28;20321;-53
2023/01/07 03:45:22;;;;;;;;;;;8.70;99.90;;;8.09;100.00;97575.56;4999823;28;20551;-54
2023/01/07 03:47:49;;;;;;;;;;;8.70;99.90;;;8.11;100.00;97572.00;5012347;28;19917;-53
2023/01/07 03:50:16;;;;;;;;;;;8.70;99.90;;;8.11;100.00;97574.63;5003593;28;19925;-54
2023/01/07 03:52:42;;;;;;;;;;;8.70;99.90;;;8.08;100.00;97574.72;5025180;28;19916;-52
2023/01/07 03:55:08;;;;;;;;;;;8.70;99.90;;;8.08;100.00;97565.97;5029412;28;20198;-53
2023/01/07 03:57:34;;;;;;;;;;;8.70;99.90;;;8.04;100.00;97567.81;5028167;28;19924;-52
2023/01/07 04:00:00;;;;;;;;;;;8.70;99.90;;;8.00;100.00;97551.25;5031699;28;20431;-50
2023/01/07 04:02:25;;;;;;;;;;;8.60;99.90;;;8.04;100.00;97567.81;5034889;28;19960;-52
2023/01/07 04:04:51;;;;;;;;;;;8.60;99.90;;;8.01;100.00;97555.59;5029465;28;19932;-53
2023/01/07 04:07:17;;;;;;;;;;;8.60;99.90;;;8.01;100.00;97552.13;5026423;28;19999;-53
2023/01/07 04:09:42;;;;;;;;;;;8.60;99.90;;;7.99;100.00;97549.53;5022517;28;19925;-54
2023/01/07 04:12:08;;;;;;;;;;;8.60;99.90;;;8.01;100.00;97542.47;5013697;28;20058;-53
2023/01/07 04:14:34;;;;;;;;;;;8.60;99.90;;;7.96;100.00;97539.06;5011332;28;20367;-53
2023/01/07 04:16:59;;;;;;;;;;;8.60;99.90;;;7.97;100.00;97545.22;5006893;28;20656;-54
2023/01/07 04:19:25;;;;;;;;;;;8.60;99.90;;;7.95;100.00;97532.13;5015201;28;20887;-55
2023/01/07 04:21:51;;;;;;;;;;;8.60;99.90;;;7.95;100.00;97536.47;5011370;28;19921;-54
2023/01/07 04:24:16;;;;;;;;;;;8.60;99.90;;;7.92;100.00;97531.31;5013416;28;20775;-54
2023/01/07 04:26:42;;;;;;;;;;;8.60;99.90;;;7.96;100.00;97530.34;5032480;28;19916;-55
2023/01/07 04:29:07;;;;;;;;;;;8.60;99.90;;;7.99;100.00;97535.53;5029976;28;19928;-54
2023/01/07 04:31:34;;;;;;;;;;;8.60;99.90;;;8.00;100.00;97534.63;5028413;28;19955;-56
2023/01/07 04:33:59;;;;;;;;;;;8.60;99.90;;;8.02;100.00;97522.31;5029602;28;19925;-55
2023/01/07 04:36:25;;;;;;;;;;;8.60;99.90;;;8.01;100.00;97521.44;5030508;28;19925;-54
2023/01/07 04:38:51;;;;;;;;;;;8.60;99.90;;;7.97;100.00;97529.47;5030907;28;20435;-55
2023/01/07 04:41:16;;;;;;;;;;;8.60;99.90;;;7.95;100.00;97521.63;5030931;28;20023;-53
2023/01/07 04:43:42;;;;;;;;;;;8.60;99.90;;;7.91;100.00;97514.69;5020186;28;20381;-55
2023/01/07 04:46:07;;;;;;;;;;;8.60;99.90;;;7.97;100.00;97526.84;5011945;28;20051;-56
2023/01/07 04:48:33;;;;;;;;;;;8.60;99.90;;;7.96;100.00;97512.81;5015010;28;20230;-55
2023/01/07 04:50:59;;;;;;;;;;;8.60;99.90;;;7.97;100.00;97516.31;5009350;28;20023;-55
2023/01/07 04:53:24;;;;;;;;;;;8.50;99.90;;;7.93;100.00;97510.28;5020307;28;20167;-54
2023/01/07 04:55:52;;;;;;;;;;;8.50;99.90;;;7.92;100.00;97512.94;5033997;28;20055;-54
2023/01/07 04:58:17;;;;;;;;;;;8.50;99.90;;;7.92;100.00;97508.56;5032580;28;20301;-53
2023/01/07 05:00:44;;;;;;;;;;;8.50;99.90;;;7.90;100.00;97499.00;5015509;28;20416;-55
2023/01/07 05:03:10;;;;;;;;;;;8.50;99.90;;;7.90;100.00;97501.63;5012443;28;19939;-54
2023/01/07 05:05:35;;;;;;;;;;;8.50;99.90;;;7.90;100.00;97502.47;5013566;28;19960;-56
2023/01/07 05:08:01;;;;;;;;;;;8.50;99.90;;;7.88;100.00;97498.16;5009615;28;19936;-55
2023/01/07 05:10:27;;;;;;;;;;;8.50;99.90;;;7.90;100.00;97497.22;5016491;28;19921;-54
2023/01/07 05:12:52;;;;;;;;;;;8.50;99.90;;;7.91;100.00;97495.44;5001620;28;20488;-54
2023/01/07 05:15:18;;;;;;;;;;;8.50;99.90;;;7.87;100.00;97480.69;5012572;28;19921;-55
2023/01/07 05:17:43;;;;;;;;;;;8.50;99.90;;;7.92;100.00;97495.41;5010277;28;19928;-54
2023/01/07 05:20:09;;;;;;;;;;;8.50;99.90;;;7.88;100.00;97483.28;5001057;28;20015;-53
2023/01/07 05:22:35;;;;;;;;;;;8.50;99.90;;;7.92;100.00;97487.53;5011082;28;19920;-55
2023/01/07 05:25:01;;;;;;;;;;;8.50;99.90;;;7.90;100.00;97483.25;5013570;28;20667;-54
2023/01/07 05:27:26;;;;;;;;;;;8.50;99.90;;;7.86;100.00;97487.72;5012547;28;19927;-54
2023/01/07 05:29:52;;;;;;;;;;;8.50;99.90;;;7.84;100.00;97474.63;5006684;28;20020;-54
2023/01/07 05:32:17;;;;;;;;;;;8.50;99.90;;;7.85;100.00;97478.09;5004354;28;19921;-54
2023/01/07 05:34:43;;;;;;;;;;;8.50;99.90;;;7.86;100.00;97468.44;5006983;28;21987;-54
2023/01/07 05:37:09;;;;;;;;;;;8.50;99.90;;;7.84;100.00;97471.09;5001880;28;20011;-55
2023/01/07 05:39:34;;;;;;;;;;;8.40;99.90;;;7.78;100.00;97466.00;5005490;28;20310;-53
2023/01/07 05:42:00;;;;;;;;;;;8.40;99.90;;;7.69;100.00;97446.09;5007042;28;20648;-54
2023/01/07 05:44:25;;;;;;;;;;;8.50;99.90;;;7.83;100.00;97467.63;5012395;28;20693;-53
2023/01/07 05:46:51;;;;;;;;;;;8.50;99.90;;;7.81;100.00;97464.19;5000577;28;19924;-54
2023/01/07 05:49:17;;;;;;;;;;;8.50;99.90;;;7.85;100.00;97464.97;5005653;28;20148;-54
2023/01/07 05:51:42;;;;;;;;;;;8.40;99.90;;;7.84;100.00;97464.09;5007687;28;19925;-54
2023/01/07 05:54:08;;;;;;;;;;;8.40;99.90;;;7.83;100.00;97456.25;5020141;28;19971;-53
2023/01/07 05:56:34;;;;;;;;;;;8.50;99.90;;;7.82;100.00;97455.41;5022821;28;20431;-54
2023/01/07 05:59:00;;;;;;;;;;;8.40;99.90;;;7.82;100.00;97452.78;5024294;28;20423;-54
2023/01/07 06:01:25;;;;;;;;;;;8.40;99.90;;;7.82;100.00;97442.28;5011388;28;19954;-51
2023/01/07 06:03:51;;;;;;;;;;;8.40;99.90;;;7.77;100.00;97435.41;5010574;28;22690;-54
2023/01/07 06:06:17;;;;;;;;;;;8.40;99.90;;;7.80;100.00;97444.06;5020000;28;19931;-54
2023/01/07 06:08:42;;;;;;;;;;;8.40;99.90;;;7.82;100.00;97444.91;5015046;28;19917;-54
2023/01/07 06:11:08;;;;;;;;;;;8.40;99.90;;;7.79;100.00;97441.50;5009144;28;19925;-54
2023/01/07 06:13:34;;;;;;;;;;;8.40;99.90;;;7.81;100.00;97443.16;5012562;28;20208;-54
2023/01/07 06:16:07;;;;;;;;;;;8.40;99.90;;;7.69;100.00;97413.75;5018865;28;19927;-52
2023/01/07 06:18:33;;;;;;;;;;;8.40;99.90;;;7.70;100.00;97415.44;5020368;28;19921;-54
2023/01/07 06:20:58;;;;;;;;;;;8.40;99.90;;;7.82;100.00;97433.53;5021435;28;19940;-54
2023/01/07 06:23:24;;;;;;;;;;;8.40;99.90;;;7.81;100.00;97435.28;5017351;28;19927;-54
2023/01/07 06:25:49;;;;;;;;;;;8.40;99.90;;;7.85;100.00;97441.31;5014237;28;19917;-53
2023/01/07 06:28:15;;;;;;;;;;;8.40;99.90;;;7.84;100.00;97435.22;5030308;28;21526;-54
2023/01/07 06:30:43;;;;;;;;;;;8.40;99.90;;;7.84;100.00;97435.22;5022361;28;19960;-54
2023/01/07 06:33:09;;;;;;;;;;;8.40;99.90;;;7.80;100.00;97432.69;5023277;28;19916;-53
2023/01/07 06:35:34;;;;;;;;;;;8.40;99.90;;;7.75;100.00;97431.94;5011233;28;19925;-54
2023/01/07 06:38:00;;;;;;;;;;;8.40;99.90;;;7.72;100.00;97438.16;5009157;28;19963;-52
2023/01/07 06:40:26;;;;;;;;;;;8.40;99.90;;;7.74;100.00;97433.72;5014425;28;20566;-53
2023/01/07 06:42:51;;;;;;;;;;;8.30;99.90;;;7.72;100.00;97429.44;5019664;28;20000;-54
2023/01/07 06:45:17;;;;;;;;;;;8.40;99.90;;;7.71;100.00;97425.06;5010760;28;19967;-54
2023/01/07 06:47:44;;;;;;;;;;;8.30;99.90;;;7.72;100.00;97425.03;5032283;28;20427;-53
2023/01/07 06:50:10;;;;;;;;;;;8.30;99.90;;;7.72;100.00;97421.56;5027278;28;20385;-52
2023/01/07 06:52:35;;;;;;;;;;;8.30;99.90;;;7.71;100.00;97422.44;5027140;28;19924;-54
2023/01/07 06:55:01;;;;;;;;;;;8.30;99.90;;;7.69;100.00;97421.63;5025442;28;20012;-54
2023/01/07 06:57:27;;;;;;;;;;;8.30;99.90;;;7.69;100.00;97417.22;5006111;28;20381;-53
2023/01/07 06:59:52;;;;;;;;;;;8.30;99.90;;;7.71;100.00;97419.81;5024653;28;20377;-54
2023/01/07 07:02:20;;;;;;;;;;;8.30;99.90;;;7.67;100.00;97412.94;5029194;28;20009;-52
2023/01/07 07:04:46;;;;;;;;;;;8.30;99.90;;;7.63;100.00;97413.00;5029652;28;19925;-55
2023/01/07 07:07:12;;;;;;;;;;;8.30;99.90;;;7.60;100.00;97404.34;5027232;28;19944;-54
2023/01/07 07:09:38;;;;;;;;;;;8.30;99.90;;;7.63;100.00;97409.50;5033216;28;19921;-54
2023/01/07 07:12:04;;;;;;;;;;;8.30;99.90;;;7.62;100.00;97410.41;5032783;28;20393;-55
2023/01/07 07:14:30;;;;;;;;;;;8.20;99.90;;;7.61;100.00;97406.94;5024804;28;20159;-54
2023/01/07 07:16:55;;;;;;;;;;;8.20;99.90;;;7.60;100.00;97410.44;5028600;28;19990;-52
2023/01/07 07:19:21;;;;;;;;;;;8.20;99.90;;;7.60;100.00;97406.97;5028198;28;19917;-55
2023/01/07 07:21:47;;;;;;;;;;;8.20;99.90;;;7.60;100.00;97399.09;5025396;28;20011;-53
2023/01/07 07:24:12;;;;;;;;;;;8.20;99.90;;;7.57;100.00;97402.66;5028855;28;20376;-54
2023/01/07 07:26:38;;;;;;;;;;;8.20;99.90;;;7.56;100.00;97400.94;5028914;28;20301;-53
2023/01/07 07:29:03;;;;;;;;;;;8.20;99.90;;;7.54;100.00;97415.84;5005360;28;19921;-46
2023/01/07 07:31:29;;;;;;;;;;;8.20;99.90;;;7.54;100.00;97410.59;5012431;28;20406;-49
2023/01/07 07:33:54;;;;;;;;;;;8.20;99.90;;;7.53;100.00;97408.88;5010982;28;19925;-57
2023/01/07 07:36:20;;;;;;;;;;;8.20;99.90;;;7.52;100.00;97408.91;5013957;28;20019;-56
2023/01/07 07:38:46;;;;;;;;;;;8.20;99.90;;;7.50;100.00;97402.81;5009292;28;19928;-57
2023/01/07 07:41:11;;;;;;;;;;;8.10;99.90;;;7.51;100.00;97394.06;5017856;28;19939;-56
2023/01/07 07:43:37;;;;;;;;;;;8.10;99.90;;;7.52;100.00;97401.03;5012256;28;19925;-56
2023/01/07 07:46:03;;;;;;;;;;;8.10;99.90;;;7.52;100.00;97385.28;5004777;28;19956;-55
2023/01/07 07:48:28;;;;;;;;;;;8.10;99.90;;;7.55;100.00;97382.59;5004516;28;19943;-56
2023/01/07 07:50:54;;;;;;;;;;;8.10;99.90;;;7.54;100.00;97378.25;5003644;28;19972;-56
2023/01/07 07:53:20;;;;;;;;;;;8.20;99.90;;;7.56;100.00;97377.31;5012296;28;19927;-55
2023/01/07 07:55:45;;;;;;;;;;;8.20;99.90;;;7.59;100.00;97385.09;4993562;28;20054;-56
2023/01/07 07:58:11;;;;;;;;;;;8.20;99.90;;;7.59;100.00;97369.38;5005216;28;19925;-56
2023/01/07 08:00:37;;;;;;;;;;;8.20;99.90;;;7.65;100.00;97381.47;5002176;28;20200;-57
2023/01/07 08:03:03;;;;;;;;;;;8.30;99.90;;;7.64;100.00;97371.84;5007431;28;19983;-57
2023/01/07 08:05:29;;;;;;;;;;;8.30;99.90;;;7.66;100.00;97367.41;5000748;28;19963;-58
2023/01/07 08:07:55;;;;;;;;;;;8.30;99.90;;;7.74;100.00;97381.22;5013959;28;19921;-55
2023/01/07 08:10:21;;;;;;;;;;;8.30;99.90;;;7.78;100.00;97376.75;5017959;28;19924;-56
2023/01/07 08:12:48;;;;;;;;;;;8.40;99.90;;;7.78;100.00;97368.88;5006924;28;19975;-56
2023/01/07 08:15:14;;;;;;;;;;;8.40;99.90;;;7.84;100.00;97371.31;5022221;28;20785;-56
2023/01/07 08:17:39;;;;;;;;;;;8.40;99.90;;;7.89;100.00;97364.19;5024153;28;20503;-53
2023/01/07 08:20:06;;;;;;;;;;;8.50;99.90;;;7.96;100.00;97367.53;5025857;28;19932;-55
2023/01/07 08:22:32;;;;;;;;;;;8.50;99.90;;;8.00;100.00;97364.78;5029821;28;19964;-54
2023/01/07 08:24:58;;;;;;;;;;;8.50;99.90;;;8.03;100.00;97361.19;5023040;28;20016;-55
2023/01/07 08:27:24;;;;;;;;;;;8.60;99.90;;;7.92;100.00;97345.75;5026790;28;19924;-55
2023/01/07 08:29:50;;;;;;;;;;;8.60;99.90;;;8.06;100.00;97363.75;5029768;23;19928;-40
2023/01/07 08:32:15;;;;;;;;;;;8.60;99.90;;;8.10;100.00;97361.91;5003394;28;19979;-40
2023/01/07 08:34:41;;;;;;;;;;;8.70;99.90;;;8.07;100.00;97357.56;5000911;28;19923;-40
2023/01/07 08:37:07;;;;;;;;;;;8.70;99.90;;;8.17;100.00;97360.81;5005763;28;20616;-40
2023/01/07 08:39:32;;;;;;;;;;;8.70;99.90;;;8.19;100.00;97359.88;5000218;28;19925;-40
2023/01/07 08:41:58;;;;;;;;;;;8.80;99.90;;;8.23;100.00;97364.13;4983168;28;20494;-40
2023/01/07 08:44:23;;;;;;;;;;;8.80;99.90;;;8.28;100.00;97364.00;4999019;28;20668;-41
2023/01/07 08:46:51;;;;;;;;;;;8.90;99.90;;;8.28;100.00;97350.03;4993348;28;20055;-40
2023/01/07 08:49:16;;;;;;;;;;;8.90;99.90;;;8.33;100.00;97353.38;4994224;28;19932;-40
2023/01/07 08:51:42;;;;;;;;;;;8.90;99.90;;;8.37;100.00;97349.75;4996660;28;19925;-40
2023/01/07 08:54:08;;;;;;;;;;;8.90;99.90;;;8.40;100.00;97349.66;4999178;28;20016;-40
2023/01/07 08:56:33;;;;;;;;;;;9.00;99.90;;;8.45;100.00;97347.78;4993366;28;19917;-40
2023/01/07 08:58:59;;;;;;;;;;;9.00;99.90;;;8.41;100.00;97343.50;4992011;28;19928;-41
2023/01/07 09:01:25;;;;;;;;;;;9.00;99.90;;;8.47;100.00;97351.25;4991801;28;19979;-40
2023/01/07 09:03:50;;;;;;;;;;;9.10;99.90;;;8.47;100.00;97332.84;4993006;28;20368;-40
2023/01/07 09:06:16;;;;;;;;;;;9.10;99.90;;;8.55;100.00;97338.72;4977478;28;20060;-40
2023/01/07 09:08:41;;;;;;;;;;;9.10;99.90;;;8.59;100.00;97340.34;4998311;28;19972;-40
2023/01/07 09:11:07;;;;;;;;;;;9.20;99.90;;;8.63;100.00;97338.47;4993658;28;19925;-40
2023/01/07 09:13:33;;;;;;;;;;;9.20;99.90;;;8.72;100.00;97339.97;4989279;28;20186;-40
2023/01/07 09:15:59;;;;;;;;;;;9.30;99.90;;;8.82;100.00;97341.41;4986931;28;20714;-40
2023/01/07 09:18:24;;;;;;;;;;;9.40;99.90;;;8.93;100.00;97339.31;4994720;28;20387;-41
2023/01/07 09:20:50;;;;;;;;;;;9.50;99.90;;;9.01;100.00;97340.84;4998098;28;19933;-40
2023/01/07 09:23:16;;;;;;;;;;;9.60;99.90;;;9.02;100.00;97332.06;4987561;28;19920;-40
2023/01/07 09:25:41;;;;;;;;;;;9.60;99.90;;;9.10;100.00;97330.06;4988570;28;20246;-40
2023/01/07 09:28:07;;;;;;;;;;;9.70;99.90;;;9.13;100.00;97319.41;4996628;28;20408;-40
2023/01/07 09:30:33;;;;;;;;;;;9.70;99.90;;;9.28;100.00;97339.97;4994202;28;20011;-40
2023/01/07 09:32:58;;;;;;;;;;;9.80;99.90;;;9.30;100.00;97342.56;4988774;28;20533;-40
2023/01/07 09:35:24;;;;;;;;;;;9.90;99.90;;;9.35;100.00;97341.50;4993267;28;20400;-40
2023/01/07 09:37:50;;;;;;;;;;;9.90;99.90;;;9.34;100.00;97345.00;4992251;28;19932;-41
2023/01/07 09:40:34;;;;;;;;;;;9.90;99.90;;;9.42;100.00;97342.16;4986814;28;20337;-39
2023/01/07 09:43:14;;;;;;;;;;;10.00;99.90;;;9.46;100.00;97350.81;4973233;28;19964;-41
2023/01/07 09:45:44;;;;;;;;;;;10.00;99.90;;;9.53;100.00;97344.44;4995629;28;19925;-41
2023/01/07 09:48:17;;;;;;;;;;;10.10;99.90;;;9.57;100.00;97343.41;4984136;28;19917;-41
2023/01/07 09:50:52;;;;;;;;;;;10.10;99.90;;;9.63;100.00;97342.34;4976323;28;19935;-40
2023/01/07 09:53:22;;;;;;;;;;;10.20;99.90;;;9.63;100.00;97335.28;4975185;28;20448;-41
2023/01/07 09:55:50;;;;;;;;;;;10.20;99.90;;;9.65;100.00;97333.44;4997034;28;20016;-40
2023/01/07 09:58:17;;;;;;;;;;;10.20;99.90;;;9.61;100.00;97331.84;4987008;28;21451;-40
2023/01/07 10:00:58;;;;;;;;;;;10.20;99.90;;;9.52;100.00;97325.13;4979157;28;19921;-42
2023/01/07 10:03:45;;;;;;;;;;;10.20;99.90;;;9.56;100.00;97325.88;4999021;28;19935;-40
2023/01/07 10:06:18;;;;;;;;;;;10.20;99.90;;;9.61;100.00;97318.69;4989759;28;19921;-40
2023/01/07 10:09:07;;;;;;;;;;;10.20;99.90;;;9.64;100.00;97315.94;4992801;28;19943;-40
2023/01/07 10:12:12;;;;;;;;;;;10.20;99.90;;;9.60;100.00;97298.53;4997371;28;19929;-40
2023/01/07 10:15:09;;;;;;;;;;;10.30;99.90;;;9.70;99.97;97307.81;4970346;28;20802;-40
2023/01/07 10:17:38;;;;;;;;;;;10.30;99.90;;;9.61;98.61;97281.81;4995067;28;19921;-40
2023/01/07 10:20:25;;;;;;;;;;;10.40;99.90;;;9.74;97.90;97301.56;4990300;28;19942;-40
2023/01/07 10:22:56;;;;;;;;;;;10.40;99.90;;;9.67;96.97;97289.53;4997379;28;20380;-40
2023/01/07 10:25:25;;;;;;;;;;;10.40;99.90;;;9.58;97.87;97292.44;4998846;28;19925;-40
2023/01/07 10:27:52;;;;;;;;;;;10.20;99.90;;;9.44;98.25;97284.16;4981359;28;20022;-40
2023/01/07 10:30:22;;;;;;;;;;;10.10;99.90;;;9.49;99.19;97282.25;4996539;28;19964;-40
2023/01/07 10:32:49;;;;;;;;;;;10.10;99.90;;;9.54;97.72;97283.78;4973999;28;21244;-40
2023/01/07 10:35:19;;;;;;;;;;;10.10;99.90;;;9.56;98.31;97281.13;4976039;28;20373;-40
2023/01/07 10:37:45;;;;;;;;;;;10.20;99.90;;;9.75;97.01;97282.19;4990817;28;19925;-40
2023/01/07 10:40:28;;;;;;;;;;;10.40;99.90;;;9.95;93.84;97278.00;4993463;28;19965;-40
2023/01/07 10:43:14;;;;;;;;;;;10.50;99.90;;;10.04;92.77;97277.66;4990570;28;19925;-40
2023/01/07 10:45:48;;;;;;;;;;;10.60;99.90;;;10.17;95.42;97269.28;4968041;28;21115;-40
2023/01/07 10:48:27;;;;;;;;;;;10.70;99.90;;;10.26;91.73;97263.66;4988582;28;20218;-40
2023/01/07 10:51:06;;;;;;;;;;;10.90;99.90;;;10.26;91.07;97247.84;4997872;28;19960;-41
2023/01/07 10:53:47;;;;;;;;;;;10.90;99.90;;;10.16;92.05;97247.34;4999911;28;19964;-40
2023/01/07 10:56:22;;;;;;;;;;;10.80;99.90;;;9.94;90.76;97244.63;4987966;28;19921;-41
2023/01/07 10:58:49;;;;;;;;;;;10.60;99.90;;;9.60;92.50;97216.03;4983783;28;20393;-42
2023/01/07 11:01:24;;;;;;;;;;;10.40;99.90;;;9.50;95.45;97229.53;4993980;28;19924;-41
2023/01/07 11:03:52;;;;;;;;;;;10.20;99.90;;;9.32;96.67;97217.03;4975961;28;19939;-41
2023/01/07 11:06:25;;;;;;;;;;;10.00;99.90;;;9.28;97.85;97221.56;4997201;28;19925;-41
2023/01/07 11:08:52;;;;;;;;;;;9.90;99.90;;;9.13;100.00;97206.28;4978263;28;19925;-41
2023/01/07 11:11:19;;;;;;;;;;;9.80;99.90;;;9.05;100.00;97205.69;5000403;28;20212;-41
2023/01/07 11:13:59;;;;;;;;;;;9.60;99.90;;;8.95;100.00;97210.38;4996767;28;19925;-41
2023/01/07 11:16:28;;;;;;;;;;;9.60;99.90;;;8.83;100.00;97209.03;4999107;28;19921;-41
2023/01/07 11:18:59;;;;;;;;;;;9.50;99.90;;;8.77;100.00;97196.97;4983289;28;19969;-40
2023/01/07 11:21:35;;;;;;;;;;;9.40;99.90;;;8.77;100.00;97190.81;4979728;28;20018;-40
2023/01/07 11:24:23;;;;;;;;;;;9.40;99.90;;;8.75;100.00;97192.66;4994311;28;20242;-40
2023/01/07 11:26:49;;;;;;;;;;;9.40;99.90;;;8.72;100.00;97192.75;5002731;28;20313;-40
2023/01/07 11:29:20;;;;;;;;;;;9.30;99.90;;;8.68;100.00;97183.25;4998953;28;19921;-40
2023/01/07 11:31:51;;;;;;;;;;;9.30;99.90;;;8.68;100.00;97178.84;4983538;28;19933;-40
2023/01/07 11:34:30;;;;;;;;;;;9.30;99.90;;;8.70;100.00;97176.16;4997280;28;20014;-40
2023/01/07 11:36:56;;;;;;;;;;;9.30;99.90;;;8.69;100.00;97163.94;4994397;28;21059;-40